Gervais, Oregon
Current Conditions -  °F | °C
As of 1:53 PM on Friday 24 Oct 2014 (Local Time) from KUAO Reporting Station
Light Rain Light Rain  
Wind Chill: 54°   Ceiling: 8500
Heat Index: 54°   Visibility: 10mi
Dew Point: 50°   Wind: 9mph
Humidity: 86%   Direction: 360°N
Pressure: 29.9"   Gusts: NA
Location:  45.11°N, 122.9°W
Report Text: KUAO 242053Z AUTO 36008KT 10SM -RA OVC085 12/10 A2990 RMK AO2 RAB1959E20B49 SLP126 P0000 60000 T01220100 56021
Loading
Personal Weather Stations






























Interactive Weather Map
Tropical Storm Tracking
New forecast layout! Learn more

10-Day Weather Forecast

Advertisements
Track Severe Weather on mobile